createdAt,value
2023-11-11T00:00:10.726Z,75.70
2023-11-11T00:02:39.119Z,75.70
2023-11-11T00:05:09.486Z,75.70
2023-11-11T00:07:37.772Z,76.00
2023-11-11T00:10:07.050Z,76.00
2023-11-11T00:12:36.109Z,75.90
2023-11-11T00:15:06.182Z,75.90
2023-11-11T00:17:34.481Z,76.00
2023-11-11T00:20:03.649Z,75.90
2023-11-11T00:22:33.170Z,76.10
2023-11-11T00:25:01.388Z,75.90
2023-11-11T00:27:29.608Z,76.00
2023-11-11T00:29:59.185Z,75.80
2023-11-11T00:32:27.409Z,75.80
2023-11-11T00:34:55.759Z,75.70
2023-11-11T00:37:25.313Z,75.30
2023-11-11T00:39:55.047Z,75.30
2023-11-11T00:42:24.230Z,75.40
2023-11-11T00:44:52.514Z,75.10
2023-11-11T00:47:21.117Z,74.90
2023-11-11T00:49:50.564Z,74.90
2023-11-11T00:52:18.993Z,74.80
2023-11-11T00:54:48.827Z,74.90
2023-11-11T00:57:20.378Z,74.90
2023-11-11T00:59:48.728Z,74.60
2023-11-11T01:02:16.922Z,74.40
2023-11-11T01:04:45.104Z,74.20
2023-11-11T01:07:14.095Z,74.20
2023-11-11T01:09:42.639Z,74.00
2023-11-11T01:12:11.909Z,74.10
2023-11-11T01:14:41.641Z,74.10
2023-11-11T01:17:11.246Z,74.10
2023-11-11T01:19:39.580Z,73.70
2023-11-11T01:22:10.233Z,73.70
2023-11-11T01:24:41.880Z,73.80
2023-11-11T01:27:12.074Z,73.80
2023-11-11T01:29:43.485Z,73.70
2023-11-11T01:32:11.777Z,73.60
2023-11-11T01:34:39.957Z,73.90
2023-11-11T01:37:09.810Z,73.50
2023-11-11T01:39:38.232Z,73.40
2023-11-11T01:42:07.528Z,73.50
2023-11-11T01:44:35.769Z,73.60
2023-11-11T01:47:07.750Z,72.90
2023-11-11T01:49:36.460Z,72.90
2023-11-11T01:52:06.037Z,72.90
2023-11-11T01:54:35.691Z,73.00
2023-11-11T01:57:06.017Z,72.00
2023-11-11T01:59:35.595Z,72.40
2023-11-11T02:02:07.195Z,72.20
2023-11-11T02:04:35.977Z,72.00
2023-11-11T02:07:06.490Z,71.80
2023-11-11T02:09:34.853Z,71.60
2023-11-11T02:12:03.227Z,71.40
2023-11-11T02:14:31.455Z,71.30
2023-11-11T02:16:59.751Z,71.40
2023-11-11T02:19:30.003Z,71.40
2023-11-11T02:21:58.220Z,71.40
2023-11-11T02:24:29.432Z,71.20
2023-11-11T02:26:57.815Z,71.00
2023-11-11T02:29:25.947Z,70.70
2023-11-11T02:31:54.161Z,70.50
2023-11-11T02:34:22.471Z,70.50
2023-11-11T02:36:58.424Z,70.50
2023-11-11T02:39:32.401Z,70.40
2023-11-11T02:42:00.657Z,70.30
2023-11-11T02:44:28.924Z,70.20
2023-11-11T02:46:57.106Z,70.30
2023-11-11T02:49:25.855Z,70.30
2023-11-11T02:51:54.050Z,70.30
2023-11-11T02:54:22.451Z,70.10
2023-11-11T02:56:52.045Z,70.00
2023-11-11T02:59:20.270Z,70.00
2023-11-11T03:01:48.446Z,70.00
2023-11-11T03:04:16.777Z,70.20
2023-11-11T03:06:45.003Z,70.10
2023-11-11T03:09:13.327Z,70.20
2023-11-11T03:11:41.752Z,70.10
2023-11-11T03:14:11.771Z,69.80
2023-11-11T03:16:42.213Z,69.60
2023-11-11T03:19:10.445Z,69.90
2023-11-11T03:21:38.662Z,69.70
2023-11-11T03:24:08.601Z,69.60
2023-11-11T03:26:36.812Z,69.50
2023-11-11T03:29:05.091Z,69.40
2023-11-11T03:31:34.654Z,69.30
2023-11-11T03:34:02.957Z,69.10
2023-11-11T03:36:31.212Z,68.80
2023-11-11T03:38:59.414Z,68.50
2023-11-11T03:41:27.594Z,68.30
2023-11-11T03:43:56.216Z,68.30
2023-11-11T03:46:24.453Z,68.50
2023-11-11T03:48:53.985Z,68.50
2023-11-11T03:51:22.260Z,68.40
2023-11-11T03:53:50.491Z,68.50
2023-11-11T03:56:20.947Z,68.50
2023-11-11T03:58:49.186Z,68.70
2023-11-11T04:01:17.398Z,68.60
2023-11-11T04:03:45.747Z,68.40
2023-11-11T04:06:15.543Z,68.20
2023-11-11T04:08:43.787Z,68.20
2023-11-11T04:11:12.151Z,68.10
2023-11-11T04:13:41.247Z,67.80
2023-11-11T04:16:11.462Z,67.90
2023-11-11T04:18:40.130Z,67.90
2023-11-11T04:21:08.527Z,67.90
2023-11-11T04:23:38.216Z,68.00
2023-11-11T04:26:07.021Z,68.20
2023-11-11T04:28:35.758Z,68.60
2023-11-11T04:31:03.969Z,69.00
2023-11-11T04:33:32.296Z,69.10
2023-11-11T04:36:02.052Z,69.30
2023-11-11T04:38:30.557Z,69.50
2023-11-11T04:41:00.137Z,69.40
2023-11-11T04:43:29.164Z,69.20
2023-11-11T04:45:57.364Z,68.90
2023-11-11T04:48:25.587Z,68.50
2023-11-11T04:50:54.649Z,68.40
2023-11-11T04:53:22.850Z,68.40
2023-11-11T04:55:50.974Z,68.30
2023-11-11T04:58:20.558Z,68.10
2023-11-11T05:00:48.827Z,68.20
2023-11-11T05:03:18.369Z,68.10
2023-11-11T05:05:46.711Z,68.20
2023-11-11T05:08:15.107Z,68.10
2023-11-11T05:10:43.468Z,68.20
2023-11-11T05:13:11.669Z,68.30
2023-11-11T05:15:47.165Z,68.10
2023-11-11T05:18:15.844Z,68.20
2023-11-11T05:20:44.061Z,68.00
2023-11-11T05:23:12.348Z,67.90
2023-11-11T05:25:40.576Z,68.00
2023-11-11T05:28:08.884Z,68.00
2023-11-11T05:30:37.244Z,68.00
2023-11-11T05:33:08.103Z,68.20
2023-11-11T05:35:36.295Z,67.90
2023-11-11T05:38:05.317Z,67.70
2023-11-11T05:40:33.482Z,67.80
2023-11-11T05:43:03.261Z,67.90
2023-11-11T05:45:31.595Z,68.10
2023-11-11T05:47:59.861Z,67.90
2023-11-11T05:50:29.393Z,67.90
2023-11-11T05:52:57.566Z,68.10
2023-11-11T05:55:26.185Z,68.30
2023-11-11T05:57:54.425Z,68.30
2023-11-11T06:00:23.030Z,68.40
2023-11-11T06:02:51.270Z,68.60
2023-11-11T06:05:19.443Z,68.50
2023-11-11T06:07:49.048Z,68.60
2023-11-11T06:10:20.050Z,68.60
2023-11-11T06:12:48.953Z,68.60
2023-11-11T06:15:18.671Z,68.70
2023-11-11T06:17:46.999Z,68.80
2023-11-11T06:20:15.330Z,68.90
2023-11-11T06:22:43.918Z,68.90
2023-11-11T06:25:13.518Z,68.80
2023-11-11T06:27:42.222Z,68.90
2023-11-11T06:30:11.528Z,68.90
2023-11-11T06:32:40.045Z,68.90
2023-11-11T06:35:10.919Z,68.80
2023-11-11T06:37:39.087Z,68.80
2023-11-11T06:40:09.992Z,68.70
2023-11-11T06:42:40.221Z,68.90
2023-11-11T06:45:09.139Z,68.80
2023-11-11T06:47:37.358Z,68.70
2023-11-11T06:50:08.492Z,68.70
2023-11-11T06:52:37.154Z,68.90
2023-11-11T06:55:05.901Z,68.90
2023-11-11T06:57:34.174Z,68.90
2023-11-11T07:00:04.182Z,68.90
2023-11-11T07:02:32.981Z,69.00
2023-11-11T07:05:05.945Z,68.90
2023-11-11T07:07:34.154Z,68.80
2023-11-11T07:10:02.380Z,68.80
2023-11-11T07:12:31.841Z,68.80
2023-11-11T07:15:00.028Z,68.80
2023-11-11T07:17:30.549Z,68.60
2023-11-11T07:19:59.375Z,68.70
2023-11-11T07:22:27.937Z,68.60
2023-11-11T07:24:56.489Z,68.60
2023-11-11T07:27:25.143Z,68.70
2023-11-11T07:29:53.406Z,68.90
2023-11-11T07:32:21.555Z,68.70
2023-11-11T07:34:51.116Z,68.60
2023-11-11T07:37:19.489Z,68.40
2023-11-11T07:39:47.747Z,68.30
2023-11-11T07:42:15.933Z,68.00
2023-11-11T07:44:44.135Z,67.70
2023-11-11T07:47:12.327Z,67.70
2023-11-11T07:49:40.575Z,67.40
2023-11-11T07:52:10.344Z,67.50
2023-11-11T07:54:38.744Z,67.80
2023-11-11T07:57:09.022Z,67.60
2023-11-11T07:59:39.998Z,67.50
2023-11-11T08:02:08.681Z,67.70
2023-11-11T08:04:37.208Z,67.40
2023-11-11T08:07:05.604Z,67.40
2023-11-11T08:09:36.200Z,67.40
2023-11-11T08:12:06.001Z,67.60
2023-11-11T08:14:34.240Z,67.30
2023-11-11T08:17:02.492Z,67.40
2023-11-11T08:19:30.761Z,67.20
2023-11-11T08:21:59.014Z,67.30
2023-11-11T08:24:27.310Z,67.30
2023-11-11T08:26:57.771Z,67.40
2023-11-11T08:29:26.029Z,67.10
2023-11-11T08:31:54.798Z,67.30
2023-11-11T08:34:29.286Z,67.10
2023-11-11T08:36:57.657Z,66.90
2023-11-11T08:39:26.500Z,67.10
2023-11-11T08:41:56.152Z,66.60
2023-11-11T08:44:24.373Z,66.60
2023-11-11T08:46:52.653Z,66.40
2023-11-11T08:49:20.970Z,66.40
2023-11-11T08:51:49.618Z,65.90
2023-11-11T08:54:17.825Z,66.00
2023-11-11T08:56:47.294Z,65.70
2023-11-11T08:59:17.585Z,65.50
2023-11-11T09:01:45.958Z,65.50
2023-11-11T09:04:14.323Z,65.10
2023-11-11T09:06:42.660Z,64.70
2023-11-11T09:09:18.145Z,64.70
2023-11-11T09:11:48.312Z,64.60
2023-11-11T09:14:19.896Z,64.30
2023-11-11T09:16:48.175Z,63.90
2023-11-11T09:19:16.382Z,63.80
2023-11-11T09:21:44.663Z,63.30
2023-11-11T09:24:13.815Z,63.20
2023-11-11T09:29:16.294Z,62.40
2023-11-11T09:31:45.922Z,61.80
2023-11-11T09:34:14.152Z,61.90
2023-11-11T09:36:42.405Z,61.90
2023-11-11T09:39:11.535Z,61.80
2023-11-11T09:41:39.698Z,61.50
2023-11-11T09:46:59.709Z,61.10
2023-11-11T09:49:29.028Z,60.80
2023-11-11T09:51:58.731Z,60.50
2023-11-11T09:54:29.168Z,60.00
2023-11-11T09:59:31.597Z,59.60
2023-11-11T10:02:03.150Z,59.50
2023-11-11T10:04:31.415Z,59.30
2023-11-11T10:06:59.857Z,58.70
2023-11-11T10:09:28.055Z,58.50
2023-11-11T10:11:57.191Z,58.30
2023-11-11T10:14:28.024Z,58.20
2023-11-11T10:17:00.511Z,58.10
2023-11-11T10:19:30.418Z,57.90
2023-11-11T10:21:59.007Z,57.90
2023-11-11T10:24:27.436Z,57.80
2023-11-11T10:26:57.390Z,57.30
2023-11-11T10:29:25.569Z,57.80
2023-11-11T10:31:53.990Z,57.90
2023-11-11T10:34:22.193Z,57.50
2023-11-11T10:36:51.819Z,57.60
2023-11-11T10:39:20.638Z,57.60
2023-11-11T10:41:48.891Z,57.20
2023-11-11T10:44:17.045Z,57.60
2023-11-11T10:46:46.060Z,57.60
2023-11-11T10:49:14.519Z,57.10
2023-11-11T10:51:43.498Z,56.80
2023-11-11T10:54:14.991Z,56.60
2023-11-11T10:56:44.715Z,56.70
2023-11-11T10:59:12.868Z,56.70
2023-11-11T11:01:42.469Z,56.00
2023-11-11T11:04:12.079Z,56.30
2023-11-11T11:06:46.718Z,56.50
2023-11-11T11:09:28.982Z,56.80
2023-11-11T11:12:09.232Z,56.50
2023-11-11T11:14:47.594Z,56.40
2023-11-11T11:17:16.715Z,56.30
2023-11-11T11:19:55.714Z,56.30
2023-11-11T11:22:26.004Z,56.20
2023-11-11T11:24:55.587Z,56.10
2023-11-11T11:27:24.297Z,56.70
2023-11-11T11:29:52.903Z,56.60
2023-11-11T11:32:25.808Z,56.90
2023-11-11T11:35:27.409Z,56.70
2023-11-11T11:37:56.673Z,56.80
2023-11-11T11:40:26.774Z,56.80
2023-11-11T11:42:58.162Z,56.80
2023-11-11T11:45:31.591Z,57.50
2023-11-11T11:47:59.889Z,57.50
2023-11-11T11:50:28.580Z,57.30
2023-11-11T11:52:56.801Z,57.60
2023-11-11T11:55:26.625Z,57.80
2023-11-11T11:57:55.911Z,58.10
2023-11-11T12:00:25.536Z,58.80
2023-11-11T12:02:55.768Z,58.50
2023-11-11T12:05:26.718Z,58.90
2023-11-11T12:07:55.002Z,59.30
2023-11-11T12:10:23.287Z,59.00
2023-11-11T12:12:52.996Z,59.70
2023-11-11T12:15:21.320Z,60.30
2023-11-11T12:17:49.690Z,60.50
2023-11-11T12:20:19.531Z,60.70
2023-11-11T12:22:49.355Z,61.40
2023-11-11T12:25:17.964Z,61.40
2023-11-11T12:27:46.232Z,62.10
2023-11-11T12:30:24.290Z,62.60
2023-11-11T12:33:07.360Z,63.30
2023-11-11T12:35:37.235Z,64.20
2023-11-11T12:38:24.888Z,63.90
2023-11-11T12:40:55.218Z,63.80
2023-11-11T12:43:23.675Z,63.50
2023-11-11T12:45:58.299Z,63.30
2023-11-11T12:48:31.189Z,62.30
2023-11-11T12:50:59.502Z,63.10
2023-11-11T12:53:27.729Z,62.50
2023-11-11T12:56:06.415Z,62.00
2023-11-11T12:58:34.878Z,62.10
2023-11-11T13:01:06.189Z,62.00
2023-11-11T13:03:36.593Z,61.90
2023-11-11T13:06:06.843Z,61.10
2023-11-11T13:08:37.826Z,61.10
2023-11-11T13:11:08.248Z,60.60
2023-11-11T13:13:38.185Z,60.10
2023-11-11T13:16:12.138Z,60.50
2023-11-11T13:18:40.303Z,60.50
2023-11-11T13:21:09.656Z,59.70
2023-11-11T13:23:39.449Z,59.50
2023-11-11T13:26:12.045Z,59.40
2023-11-11T13:28:42.578Z,58.80
2023-11-11T13:31:14.351Z,59.10
2023-11-11T13:33:43.130Z,58.90
2023-11-11T13:36:17.645Z,58.20
2023-11-11T13:38:46.898Z,58.30
2023-11-11T13:41:16.438Z,58.40
2023-11-11T13:43:49.358Z,58.10
2023-11-11T13:46:23.041Z,58.30
2023-11-11T13:48:51.950Z,58.20
2023-11-11T13:51:20.267Z,58.40
2023-11-11T13:53:50.697Z,58.50
2023-11-11T13:56:18.926Z,58.90
2023-11-11T13:58:48.134Z,58.60
2023-11-11T14:01:16.523Z,58.70
2023-11-11T14:03:46.659Z,58.80
2023-11-11T14:06:14.910Z,59.00
2023-11-11T14:08:43.645Z,59.10
2023-11-11T14:11:12.338Z,59.00
2023-11-11T14:13:41.112Z,59.20
2023-11-11T14:16:11.308Z,59.40
2023-11-11T14:18:39.601Z,59.40
2023-11-11T14:21:09.147Z,59.90
2023-11-11T14:23:38.392Z,59.90
2023-11-11T14:26:08.652Z,60.40
2023-11-11T14:28:36.948Z,60.80
2023-11-11T14:31:06.722Z,61.10
2023-11-11T14:33:35.266Z,61.00
2023-11-11T14:36:03.543Z,61.10
2023-11-11T14:38:33.981Z,61.30
2023-11-11T14:41:03.926Z,61.60
2023-11-11T14:43:32.342Z,61.30
2023-11-11T14:46:00.659Z,61.10
2023-11-11T14:48:30.467Z,61.40
2023-11-11T14:50:58.702Z,61.30
2023-11-11T14:53:26.909Z,61.10
2023-11-11T14:55:56.594Z,61.50
2023-11-11T14:58:24.758Z,61.50
2023-11-11T15:00:53.731Z,61.50
2023-11-11T15:03:22.330Z,61.30
2023-11-11T15:05:51.285Z,61.30
2023-11-11T15:08:19.540Z,61.30
2023-11-11T15:10:47.817Z,61.50
2023-11-11T15:13:22.419Z,61.40
2023-11-11T15:15:51.421Z,61.10
2023-11-11T15:18:22.089Z,61.10
2023-11-11T15:20:51.059Z,61.10
2023-11-11T15:23:25.882Z,61.00
2023-11-11T15:25:58.582Z,61.20
2023-11-11T15:28:28.181Z,61.30
2023-11-11T15:30:55.640Z,62.00
2023-11-11T15:33:25.509Z,62.60
2023-11-11T15:35:53.764Z,63.60
2023-11-11T15:38:24.521Z,63.80
2023-11-11T15:40:53.008Z,64.20
2023-11-11T15:43:21.213Z,64.40
2023-11-11T15:45:50.831Z,64.90
2023-11-11T15:48:19.672Z,65.40
2023-11-11T15:50:47.920Z,65.60
2023-11-11T15:53:16.054Z,65.80
2023-11-11T15:55:44.294Z,66.00
2023-11-11T15:58:12.989Z,66.20
2023-11-11T16:00:41.199Z,66.40
2023-11-11T16:03:10.803Z,66.60
2023-11-11T16:05:39.007Z,66.50
2023-11-11T16:08:10.003Z,66.90
2023-11-11T16:10:38.236Z,66.90
2023-11-11T16:13:06.657Z,67.10
2023-11-11T16:15:34.802Z,67.20
2023-11-11T16:18:03.676Z,67.20
2023-11-11T16:20:33.317Z,67.20
2023-11-11T16:23:01.529Z,67.70
2023-11-11T16:25:29.724Z,67.70
2023-11-11T16:27:58.606Z,68.40
2023-11-11T16:30:26.851Z,68.60
2023-11-11T16:32:55.154Z,68.70
2023-11-11T16:35:23.346Z,68.90
2023-11-11T16:37:53.165Z,69.50
2023-11-11T16:40:21.483Z,70.30
2023-11-11T16:42:49.745Z,70.80
2023-11-11T16:45:18.042Z,71.10
2023-11-11T16:47:46.267Z,71.30
2023-11-11T16:50:16.258Z,71.50
2023-11-11T16:52:44.479Z,71.50
2023-11-11T16:55:14.077Z,72.20
2023-11-11T16:57:42.224Z,72.40
2023-11-11T17:00:12.824Z,72.40
2023-11-11T17:02:41.190Z,72.60
2023-11-11T17:05:10.309Z,72.50
2023-11-11T17:07:38.470Z,72.60
2023-11-11T17:10:07.931Z,72.70
2023-11-11T17:12:37.493Z,72.70
2023-11-11T17:15:06.451Z,72.60
2023-11-11T17:17:34.738Z,72.60
2023-11-11T17:20:06.178Z,72.50
2023-11-11T17:22:35.597Z,72.40
2023-11-11T17:25:05.008Z,72.60
2023-11-11T17:27:34.861Z,72.70
2023-11-11T17:30:06.159Z,72.70
2023-11-11T17:32:34.905Z,72.80
2023-11-11T17:35:03.685Z,72.80
2023-11-11T17:37:31.977Z,72.90
2023-11-11T17:40:00.347Z,72.90
2023-11-11T17:42:28.594Z,72.90
2023-11-11T17:44:57.435Z,72.20
2023-11-11T17:47:27.158Z,72.00
2023-11-11T17:49:55.378Z,71.90
2023-11-11T17:52:23.593Z,71.90
2023-11-11T17:54:52.051Z,72.00
2023-11-11T17:57:20.321Z,72.30
2023-11-11T17:59:48.482Z,72.60
2023-11-11T18:02:16.852Z,72.70
2023-11-11T18:04:46.981Z,73.00
2023-11-11T18:07:15.297Z,73.20
2023-11-11T18:09:44.215Z,73.30
2023-11-11T18:12:13.431Z,73.50
2023-11-11T18:14:41.674Z,73.70
2023-11-11T18:17:10.087Z,73.80
2023-11-11T18:19:39.556Z,74.00
2023-11-11T18:22:09.300Z,74.00
2023-11-11T18:24:37.513Z,74.30
2023-11-11T18:27:06.201Z,74.50
2023-11-11T18:29:36.119Z,74.60
2023-11-11T18:32:04.759Z,74.40
2023-11-11T18:34:33.385Z,74.60
2023-11-11T18:37:01.622Z,74.90
2023-11-11T18:39:31.792Z,74.90
2023-11-11T18:41:59.952Z,75.00
2023-11-11T18:44:29.797Z,75.20
2023-11-11T18:46:58.730Z,75.20
2023-11-11T18:49:27.036Z,75.50
2023-11-11T18:51:55.252Z,75.60
2023-11-11T18:54:23.482Z,75.60
2023-11-11T18:56:53.014Z,75.70
2023-11-11T18:59:21.144Z,75.60
2023-11-11T19:01:49.838Z,75.60
2023-11-11T19:04:18.182Z,75.30
2023-11-11T19:06:46.412Z,75.50
2023-11-11T19:09:14.962Z,75.20
2023-11-11T19:11:45.496Z,75.10
2023-11-11T19:14:15.099Z,75.20
2023-11-11T19:16:43.817Z,75.50
2023-11-11T19:19:12.598Z,75.70
2023-11-11T19:21:41.056Z,75.80
2023-11-11T19:24:12.576Z,75.80
2023-11-11T19:26:41.207Z,76.10
2023-11-11T19:29:09.878Z,76.10
2023-11-11T19:31:39.553Z,76.50
2023-11-11T19:34:08.476Z,76.50
2023-11-11T19:36:37.092Z,76.50
2023-11-11T19:39:05.823Z,76.50
2023-11-11T19:41:36.228Z,76.50
2023-11-11T19:44:06.178Z,76.60
2023-11-11T19:46:34.957Z,76.50
2023-11-11T19:49:09.531Z,76.70
2023-11-11T19:51:39.404Z,76.80
2023-11-11T19:54:13.324Z,76.80
2023-11-11T19:56:42.407Z,76.50
2023-11-11T19:59:14.291Z,76.70
2023-11-11T20:01:43.854Z,76.70
2023-11-11T20:04:14.206Z,76.60
2023-11-11T20:06:43.268Z,76.60
2023-11-11T20:09:13.332Z,76.90
2023-11-11T20:11:42.282Z,76.90
2023-11-11T20:14:11.055Z,76.90
2023-11-11T20:16:40.645Z,76.90
2023-11-11T20:19:11.548Z,77.20
2023-11-11T20:21:42.137Z,77.20
2023-11-11T20:24:11.796Z,76.90
2023-11-11T20:26:43.025Z,77.00
2023-11-11T20:29:11.858Z,76.90
2023-11-11T20:31:40.581Z,76.90
2023-11-11T20:34:09.633Z,76.90
2023-11-11T20:36:38.489Z,76.90
2023-11-11T20:39:10.462Z,77.10
2023-11-11T20:41:42.995Z,76.90
2023-11-11T20:44:11.995Z,77.60
2023-11-11T20:46:43.002Z,77.50
2023-11-11T20:49:11.880Z,77.90
2023-11-11T20:51:45.775Z,78.00
2023-11-11T20:54:15.992Z,78.20
2023-11-11T20:56:44.902Z,78.20
2023-11-11T20:59:14.235Z,78.10
2023-11-11T21:01:43.385Z,78.10
2023-11-11T21:04:12.378Z,78.20
2023-11-11T21:06:41.667Z,78.10
2023-11-11T21:09:14.732Z,78.10
2023-11-11T21:11:46.928Z,78.20
2023-11-11T21:14:16.930Z,78.10
2023-11-11T21:16:46.647Z,78.00
2023-11-11T21:19:16.164Z,77.90
2023-11-11T21:21:45.015Z,77.80
2023-11-11T21:24:18.659Z,77.80
2023-11-11T21:26:50.622Z,77.70
2023-11-11T21:29:19.492Z,77.90
2023-11-11T21:31:48.668Z,77.90
2023-11-11T21:34:19.052Z,77.90
2023-11-11T21:36:48.484Z,77.70
2023-11-11T21:39:17.689Z,77.80
2023-11-11T21:41:46.389Z,77.70
2023-11-11T21:44:16.757Z,77.70
2023-11-11T21:46:45.735Z,77.90
2023-11-11T21:49:14.720Z,78.00
2023-11-11T21:51:43.741Z,78.00
2023-11-11T21:54:12.773Z,78.10
2023-11-11T21:56:41.398Z,78.20
2023-11-11T21:59:11.866Z,78.10
2023-11-11T22:01:45.014Z,78.40
2023-11-11T22:04:13.950Z,78.40
2023-11-11T22:06:42.817Z,78.50
2023-11-11T22:09:13.117Z,78.50
2023-11-11T22:11:42.318Z,78.40
2023-11-11T22:14:11.176Z,78.50
2023-11-11T22:16:40.392Z,78.50
2023-11-11T22:19:10.685Z,78.50
2023-11-11T22:21:39.277Z,78.60
2023-11-11T22:24:09.224Z,78.70
2023-11-11T22:26:38.726Z,78.60
2023-11-11T22:29:07.422Z,78.90
2023-11-11T22:31:36.032Z,79.00
2023-11-11T22:34:04.979Z,78.90
2023-11-11T22:36:35.431Z,79.00
2023-11-11T22:39:05.080Z,79.00
2023-11-11T22:41:34.694Z,79.20
2023-11-11T22:44:03.954Z,79.10
2023-11-11T22:46:32.930Z,79.30
2023-11-11T22:49:01.836Z,79.40
2023-11-11T22:51:30.885Z,79.50
2023-11-11T22:54:01.558Z,79.40
2023-11-11T22:56:30.684Z,79.40
2023-11-11T22:59:00.325Z,79.40
2023-11-11T23:01:32.593Z,79.30
2023-11-11T23:04:02.639Z,79.20
2023-11-11T23:06:32.812Z,79.30
2023-11-11T23:09:03.801Z,79.30
2023-11-11T23:11:33.807Z,79.40
2023-11-11T23:14:02.701Z,79.50
2023-11-11T23:16:31.697Z,79.40
2023-11-11T23:19:00.718Z,79.40
2023-11-11T23:21:29.752Z,79.50
2023-11-11T23:23:58.603Z,79.60
2023-11-11T23:26:29.150Z,79.60
2023-11-11T23:28:58.385Z,79.60
2023-11-11T23:31:27.301Z,79.50
2023-11-11T23:33:56.632Z,79.40
2023-11-11T23:36:26.009Z,79.50
2023-11-11T23:38:54.563Z,79.30
2023-11-11T23:41:23.922Z,79.40
2023-11-11T23:43:54.377Z,79.50
2023-11-11T23:46:23.611Z,79.40
2023-11-11T23:48:52.178Z,79.40
2023-11-11T23:51:22.609Z,79.50
2023-11-11T23:53:51.820Z,79.60
2023-11-11T23:56:20.841Z,79.60
2023-11-11T23:58:49.555Z,79.80
